createdAt,value
2018-09-19T00:00:32.423Z,6.87
2018-09-19T00:03:01.136Z,6.57
2018-09-19T00:05:29.535Z,7.20
2018-09-19T00:07:57.966Z,7.07
2018-09-19T00:10:27.011Z,7.23
2018-09-19T00:12:55.891Z,9.60
2018-09-19T00:15:24.453Z,7.60
2018-09-19T00:17:54.900Z,6.93
2018-09-19T00:20:23.321Z,6.93
2018-09-19T00:22:51.897Z,6.87
2018-09-19T00:25:20.696Z,7.50
2018-09-19T00:27:49.990Z,7.00
2018-09-19T00:30:18.714Z,6.87
2018-09-19T00:32:47.636Z,7.23
2018-09-19T00:35:18.914Z,7.00
2018-09-19T00:37:47.397Z,7.20
2018-09-19T00:40:15.939Z,6.57
2018-09-19T00:42:44.704Z,7.07
2018-09-19T00:45:15.825Z,7.07
2018-09-19T00:47:44.502Z,6.87
2018-09-19T00:50:13.272Z,7.30
2018-09-19T00:52:42.399Z,7.20
2018-09-19T00:55:10.829Z,6.00
2018-09-19T00:57:39.794Z,7.43
2018-09-19T01:00:08.402Z,8.53
2018-09-19T01:02:36.882Z,7.93
2018-09-19T01:05:05.998Z,9.90
2018-09-19T01:07:34.478Z,6.73
2018-09-19T01:10:02.941Z,6.03
2018-09-19T01:12:32.134Z,6.30
2018-09-19T01:15:00.778Z,7.07
2018-09-19T01:17:29.252Z,7.13
2018-09-19T01:19:57.926Z,6.70
2018-09-19T01:22:26.896Z,6.57
2018-09-19T01:24:55.621Z,6.40
2018-09-19T01:27:24.046Z,7.57
2018-09-19T01:29:53.272Z,8.13
2018-09-19T01:32:22.647Z,7.73
2018-09-19T01:34:51.041Z,8.67
2018-09-19T01:37:19.470Z,7.77
2018-09-19T01:39:49.462Z,6.83
2018-09-19T01:42:18.209Z,6.73
2018-09-19T01:44:46.605Z,7.73
2018-09-19T01:47:15.071Z,6.57
2018-09-19T01:49:44.067Z,7.40
2018-09-19T01:52:13.896Z,7.30
2018-09-19T01:54:42.534Z,6.80
2018-09-19T01:57:10.969Z,7.60
2018-09-19T01:59:39.423Z,7.93
2018-09-19T02:02:07.853Z,7.97
2018-09-19T02:04:36.227Z,8.57
2018-09-19T02:07:05.430Z,6.40
2018-09-19T02:09:34.211Z,6.97
2018-09-19T02:12:03.032Z,6.33
2018-09-19T02:14:31.438Z,7.03
2018-09-19T02:16:59.844Z,9.53
2018-09-19T02:19:28.573Z,10.73
2018-09-19T02:21:59.249Z,6.83
2018-09-19T02:24:27.704Z,7.10
2018-09-19T02:29:31.993Z,6.90
2018-09-19T02:32:03.386Z,7.27
2018-09-19T02:34:31.747Z,6.40
2018-09-19T02:37:04.087Z,7.23
2018-09-19T02:39:32.996Z,6.57
2018-09-19T02:42:01.423Z,6.50
2018-09-19T02:44:29.899Z,8.50
2018-09-19T02:46:58.332Z,7.87
2018-09-19T02:49:26.685Z,8.20
2018-09-19T02:51:57.865Z,11.03
2018-09-19T02:54:27.989Z,7.97
2018-09-19T02:56:58.329Z,8.23
2018-09-19T02:59:27.248Z,7.23
2018-09-19T03:01:57.982Z,8.00
2018-09-19T03:04:26.344Z,6.57
2018-09-19T03:06:54.747Z,7.47
2018-09-19T03:09:24.533Z,6.27
2018-09-19T03:11:52.951Z,6.57
2018-09-19T03:14:21.904Z,7.50
2018-09-19T03:19:20.597Z,8.03
2018-09-19T03:21:49.127Z,7.30
2018-09-19T03:24:17.543Z,8.13
2018-09-19T03:26:46.043Z,7.27
2018-09-19T03:29:14.505Z,8.20
2018-09-19T03:31:42.959Z,7.03
2018-09-19T03:34:11.825Z,7.97
2018-09-19T03:36:52.265Z,8.37
2018-09-19T03:39:21.660Z,8.10
2018-09-19T03:41:50.738Z,8.27
2018-09-19T03:44:20.197Z,7.10
2018-09-19T03:46:48.884Z,7.33
2018-09-19T03:49:20.102Z,7.23
2018-09-19T03:51:48.543Z,7.67
2018-09-19T03:54:16.963Z,7.37
2018-09-19T03:56:47.330Z,10.67
2018-09-19T03:59:15.994Z,8.60
2018-09-19T04:01:44.422Z,7.67
2018-09-19T04:04:16.921Z,6.97
2018-09-19T04:06:45.589Z,5.97
2018-09-19T04:09:14.616Z,5.50
2018-09-19T04:11:43.367Z,6.67
2018-09-19T04:14:12.630Z,7.67
2018-09-19T04:16:41.534Z,7.87
2018-09-19T04:19:10.436Z,9.73
2018-09-19T04:21:42.635Z,7.80
2018-09-19T04:24:11.255Z,8.40
2018-09-19T04:26:39.683Z,8.73
2018-09-19T04:29:08.129Z,8.20
2018-09-19T04:31:56.442Z,7.80
2018-09-19T04:34:24.824Z,10.27
2018-09-19T04:36:53.470Z,11.13
2018-09-19T04:39:22.238Z,9.73
2018-09-19T04:41:50.693Z,8.73
2018-09-19T04:44:19.100Z,8.60
2018-09-19T04:46:47.538Z,9.33
2018-09-19T04:49:16.676Z,9.23
2018-09-19T04:51:45.131Z,9.27
2018-09-19T04:54:13.607Z,9.87
2018-09-19T04:56:42.524Z,12.23
2018-09-19T04:59:13.771Z,11.17
2018-09-19T05:01:42.570Z,10.30
2018-09-19T05:04:11.367Z,10.23
2018-09-19T05:06:39.786Z,12.03
2018-09-19T05:09:10.239Z,11.17
2018-09-19T05:11:39.520Z,11.37
2018-09-19T05:14:08.287Z,11.60
2018-09-19T05:16:36.702Z,10.00
2018-09-19T05:19:05.483Z,10.17
2018-09-19T05:21:33.921Z,10.80
2018-09-19T05:24:02.362Z,11.50
2018-09-19T05:26:31.075Z,11.40
2018-09-19T05:28:59.567Z,12.60
2018-09-19T05:31:28.740Z,13.33
2018-09-19T05:33:57.170Z,10.67
2018-09-19T05:36:25.612Z,10.13
2018-09-19T05:38:54.257Z,10.60
2018-09-19T05:41:22.734Z,12.93
2018-09-19T05:43:51.735Z,16.60
2018-09-19T05:46:20.895Z,14.47
2018-09-19T05:48:49.432Z,13.30
2018-09-19T05:51:17.850Z,12.30
2018-09-19T05:53:46.725Z,11.40
2018-09-19T05:56:15.112Z,11.30
2018-09-19T05:58:43.873Z,9.97
2018-09-19T06:01:12.721Z,11.50
2018-09-19T06:03:41.147Z,10.17
2018-09-19T06:06:09.791Z,11.57
2018-09-19T06:08:50.590Z,10.77
2018-09-19T06:11:18.991Z,10.87
2018-09-19T06:13:47.425Z,10.00
2018-09-19T06:16:15.829Z,10.70
2018-09-19T06:18:44.295Z,9.33
2018-09-19T06:21:12.728Z,9.77
2018-09-19T06:23:41.400Z,9.60
2018-09-19T06:26:10.013Z,9.97
2018-09-19T06:28:38.491Z,9.63
2018-09-19T06:31:07.596Z,9.27
2018-09-19T06:33:36.003Z,9.53
2018-09-19T06:36:04.667Z,10.70
2018-09-19T06:38:33.066Z,8.27
2018-09-19T06:41:01.543Z,9.70
2018-09-19T06:43:29.907Z,9.00
2018-09-19T06:46:00.070Z,10.27
2018-09-19T06:48:28.450Z,9.33
2018-09-19T06:50:56.875Z,9.80
2018-09-19T06:53:25.334Z,8.90
2018-09-19T06:55:54.036Z,8.47
2018-09-19T06:58:24.372Z,7.93
2018-09-19T07:00:52.792Z,8.07
2018-09-19T07:03:21.218Z,10.43
2018-09-19T07:05:49.920Z,9.73
2018-09-19T07:08:20.151Z,9.33
2018-09-19T07:10:48.553Z,10.73
2018-09-19T07:13:17.263Z,12.90
2018-09-19T07:15:45.991Z,11.37
2018-09-19T07:18:14.832Z,12.33
2018-09-19T07:20:43.575Z,8.80
2018-09-19T07:23:12.530Z,9.90
2018-09-19T07:25:41.933Z,13.90
2018-09-19T07:28:10.793Z,10.43
2018-09-19T07:30:40.062Z,10.10
2018-09-19T07:33:08.745Z,9.10
2018-09-19T07:35:37.175Z,8.93
2018-09-19T07:38:07.339Z,9.57
2018-09-19T07:40:35.742Z,8.03
2018-09-19T07:43:04.539Z,8.23
2018-09-19T07:45:33.195Z,8.30
2018-09-19T07:48:01.603Z,10.07
2018-09-19T07:50:30.333Z,8.57
2018-09-19T07:53:02.904Z,9.73
2018-09-19T07:55:33.065Z,8.90
2018-09-19T07:58:02.301Z,10.50
2018-09-19T08:00:31.727Z,8.80
2018-09-19T08:03:00.124Z,9.73
2018-09-19T08:05:30.931Z,11.90
2018-09-19T08:07:59.625Z,8.50
2018-09-19T08:10:28.061Z,7.50
2018-09-19T08:12:56.975Z,9.53
2018-09-19T08:15:25.739Z,7.77
2018-09-19T08:17:54.140Z,8.47
2018-09-19T08:20:23.057Z,7.20
2018-09-19T08:22:51.502Z,7.00
2018-09-19T08:25:19.953Z,7.17
2018-09-19T08:27:48.338Z,6.33
2018-09-19T08:30:17.048Z,7.07
2018-09-19T08:32:52.056Z,6.27
2018-09-19T08:35:20.521Z,5.60
2018-09-19T08:37:48.967Z,5.60
2018-09-19T08:40:17.440Z,6.23
2018-09-19T08:42:46.349Z,5.40
2018-09-19T08:45:15.405Z,5.83
2018-09-19T08:47:43.729Z,5.33
2018-09-19T08:50:12.571Z,5.60
2018-09-19T08:52:40.991Z,5.70
2018-09-19T08:55:09.592Z,5.77
2018-09-19T08:57:37.988Z,5.97
2018-09-19T09:00:06.926Z,5.47
2018-09-19T09:02:35.473Z,3.63
2018-09-19T09:05:04.268Z,3.87
2018-09-19T09:07:32.690Z,3.53
2018-09-19T09:10:01.620Z,3.50
2018-09-19T09:12:30.465Z,3.87
2018-09-19T09:15:00.665Z,3.77
2018-09-19T09:17:29.127Z,4.63
2018-09-19T09:19:58.091Z,4.70
2018-09-19T09:22:26.460Z,3.23
2018-09-19T09:24:56.002Z,3.10
2018-09-19T09:27:25.215Z,3.13
2018-09-19T09:29:53.571Z,3.47
2018-09-19T09:32:22.494Z,3.03
2018-09-19T09:34:51.463Z,3.03
2018-09-19T09:37:20.362Z,3.33
2018-09-19T09:39:49.140Z,3.20
2018-09-19T09:42:17.551Z,4.83
2018-09-19T09:44:46.144Z,5.17
2018-09-19T09:47:14.823Z,3.57
2018-09-19T09:49:45.534Z,3.63
2018-09-19T09:52:13.887Z,5.93
2018-09-19T09:54:42.349Z,3.70
2018-09-19T09:57:11.953Z,3.83
2018-09-19T09:59:40.386Z,3.73
2018-09-19T10:02:08.988Z,3.80
2018-09-19T10:04:37.451Z,6.93
2018-09-19T10:07:06.071Z,3.97
2018-09-19T10:09:34.447Z,3.70
2018-09-19T10:12:02.903Z,3.53
2018-09-19T10:14:32.171Z,4.43
2018-09-19T10:17:01.192Z,3.67
2018-09-19T10:19:30.212Z,3.90
2018-09-19T10:21:58.654Z,4.00
2018-09-19T10:24:27.336Z,3.63
2018-09-19T10:26:58.451Z,3.77
2018-09-19T10:29:26.954Z,3.70
2018-09-19T10:31:57.634Z,4.40
2018-09-19T10:34:26.008Z,4.50
2018-09-19T10:36:55.148Z,4.00
2018-09-19T10:39:24.334Z,3.57
2018-09-19T10:41:52.952Z,3.53
2018-09-19T10:44:21.739Z,3.70
2018-09-19T10:46:51.029Z,4.00
2018-09-19T10:49:19.473Z,4.33
2018-09-19T10:51:47.971Z,4.27
2018-09-19T10:54:16.514Z,3.73
2018-09-19T10:56:44.941Z,3.40
2018-09-19T10:59:13.411Z,3.53
2018-09-19T11:01:41.971Z,4.37
2018-09-19T11:04:10.663Z,3.95
2018-09-19T11:06:41.433Z,6.03
2018-09-19T11:09:11.974Z,4.53
2018-09-19T11:11:40.394Z,4.10
2018-09-19T11:14:08.876Z,3.70
2018-09-19T11:16:37.248Z,3.60
2018-09-19T11:19:05.671Z,3.20
2018-09-19T11:21:36.297Z,3.50
2018-09-19T11:24:04.707Z,3.20
2018-09-19T11:26:33.401Z,3.50
2018-09-19T11:29:01.781Z,3.43
2018-09-19T11:31:30.469Z,4.37
2018-09-19T11:33:59.142Z,4.00
2018-09-19T11:36:27.624Z,5.30
2018-09-19T11:38:57.238Z,4.90
2018-09-19T11:41:25.690Z,3.60
2018-09-19T11:43:54.422Z,4.30
2018-09-19T11:46:22.859Z,3.83
2018-09-19T11:48:51.394Z,4.20
2018-09-19T11:51:20.084Z,4.27
2018-09-19T11:53:48.628Z,4.13
2018-09-19T11:56:17.039Z,4.60
2018-09-19T11:58:45.508Z,3.53
2018-09-19T12:01:14.680Z,3.43
2018-09-19T12:03:43.266Z,3.60
2018-09-19T12:06:11.708Z,4.20
2018-09-19T12:08:40.669Z,3.50
2018-09-19T12:11:09.089Z,3.23
2018-09-19T12:13:37.543Z,3.63
2018-09-19T12:16:06.536Z,4.33
2018-09-19T12:18:37.590Z,3.70
2018-09-19T12:21:14.408Z,3.50
2018-09-19T12:23:52.298Z,4.10
2018-09-19T12:26:21.063Z,3.60
2018-09-19T12:28:49.457Z,3.10
2018-09-19T12:31:17.855Z,4.70
2018-09-19T12:33:46.575Z,3.20
2018-09-19T12:36:15.003Z,3.47
2018-09-19T12:38:43.421Z,3.10
2018-09-19T12:41:11.834Z,4.20
2018-09-19T12:43:40.198Z,4.67
2018-09-19T12:46:17.075Z,6.30
2018-09-19T12:48:45.522Z,4.17
2018-09-19T12:51:13.934Z,3.17
2018-09-19T12:53:42.388Z,3.83
2018-09-19T12:56:11.228Z,3.57
2018-09-19T12:58:39.596Z,3.60
2018-09-19T13:01:08.052Z,3.70
2018-09-19T13:03:37.154Z,3.53
2018-09-19T13:06:05.597Z,3.40
2018-09-19T13:08:34.068Z,4.73
2018-09-19T13:11:02.401Z,5.63
2018-09-19T13:13:30.845Z,4.30
2018-09-19T13:15:59.680Z,4.33
2018-09-19T13:18:28.056Z,5.50
2018-09-19T13:20:56.656Z,3.30
2018-09-19T13:23:25.011Z,5.43
2018-09-19T13:25:53.428Z,4.33
2018-09-19T13:28:23.603Z,4.17
2018-09-19T13:30:52.304Z,4.63
2018-09-19T13:33:20.671Z,3.97
2018-09-19T13:35:49.065Z,5.10
2018-09-19T13:38:17.791Z,4.27
2018-09-19T13:40:46.450Z,5.87
2018-09-19T13:43:14.936Z,3.80
2018-09-19T13:45:43.404Z,3.70
2018-09-19T13:48:11.875Z,3.80
2018-09-19T13:50:53.487Z,5.83
2018-09-19T13:53:22.731Z,5.70
2018-09-19T13:55:52.048Z,4.37
2018-09-19T13:58:20.535Z,4.50
2018-09-19T14:00:50.246Z,4.10
2018-09-19T14:03:18.860Z,5.03
2018-09-19T14:05:49.415Z,3.30
2018-09-19T14:08:18.214Z,4.47
2018-09-19T14:10:46.650Z,4.97
2018-09-19T14:13:15.228Z,3.83
2018-09-19T14:15:43.666Z,5.13
2018-09-19T14:18:12.134Z,3.67
2018-09-19T14:20:40.824Z,3.30
2018-09-19T14:23:09.818Z,3.63
2018-09-19T14:25:38.228Z,5.73
2018-09-19T14:28:06.900Z,4.23
2018-09-19T14:30:35.789Z,4.07
2018-09-19T14:33:04.700Z,3.90
2018-09-19T14:35:33.049Z,4.07
2018-09-19T14:38:01.471Z,4.17
2018-09-19T14:40:29.870Z,3.83
2018-09-19T14:43:00.069Z,6.67
2018-09-19T14:45:28.464Z,4.20
2018-09-19T14:47:57.285Z,4.30
2018-09-19T14:50:26.683Z,5.23
2018-09-19T14:53:01.299Z,5.17
2018-09-19T14:55:29.872Z,5.20
2018-09-19T14:57:58.292Z,4.37
2018-09-19T15:00:26.814Z,4.47
2018-09-19T15:02:55.823Z,4.43
2018-09-19T15:05:24.179Z,4.40
2018-09-19T15:07:53.103Z,4.43
2018-09-19T15:10:21.522Z,4.30
2018-09-19T15:12:50.167Z,5.27
2018-09-19T15:15:19.861Z,4.10
2018-09-19T15:18:05.161Z,5.73
2018-09-19T15:20:33.506Z,4.10
2018-09-19T15:23:02.979Z,3.97
2018-09-19T15:25:31.420Z,4.27
2018-09-19T15:27:59.824Z,4.13
2018-09-19T15:30:28.248Z,4.57
2018-09-19T15:32:56.972Z,4.40
2018-09-19T15:35:37.666Z,3.57
2018-09-19T15:38:06.218Z,4.60
2018-09-19T15:40:34.825Z,5.67
2018-09-19T15:43:03.301Z,3.63
2018-09-19T15:45:31.698Z,4.20
2018-09-19T15:48:00.586Z,3.83
2018-09-19T15:50:28.969Z,3.67
2018-09-19T15:52:57.406Z,3.60
2018-09-19T15:55:25.816Z,4.37
2018-09-19T15:57:54.409Z,6.03
2018-09-19T16:00:22.952Z,3.87
2018-09-19T16:02:51.356Z,4.77
2018-09-19T16:05:19.819Z,5.17
2018-09-19T16:07:48.183Z,5.17
2018-09-19T16:10:16.619Z,4.67
2018-09-19T16:12:45.075Z,5.27
2018-09-19T16:15:13.868Z,4.33
2018-09-19T16:17:43.371Z,3.57
2018-09-19T16:20:12.884Z,5.67
2018-09-19T16:22:41.989Z,6.07
2018-09-19T16:25:10.452Z,4.67
2018-09-19T16:27:39.180Z,5.13
2018-09-19T16:30:07.630Z,4.57
2018-09-19T16:32:37.324Z,3.90
2018-09-19T16:35:05.757Z,4.10
2018-09-19T16:37:34.173Z,3.80
2018-09-19T16:40:06.355Z,4.90
2018-09-19T16:42:34.912Z,3.87
2018-09-19T16:45:03.400Z,5.17
2018-09-19T16:47:32.560Z,4.23
2018-09-19T16:50:01.613Z,4.97
2018-09-19T16:52:31.031Z,4.57
2018-09-19T16:54:59.697Z,4.73
2018-09-19T16:57:28.185Z,6.83
2018-09-19T16:59:57.793Z,4.57
2018-09-19T17:02:26.732Z,7.70
2018-09-19T17:04:57.297Z,4.80
2018-09-19T17:07:25.850Z,4.30
2018-09-19T17:09:55.072Z,5.17
2018-09-19T17:12:27.846Z,4.80
2018-09-19T17:14:56.478Z,4.73
2018-09-19T17:17:24.999Z,4.60
2018-09-19T17:19:53.601Z,6.37
2018-09-19T17:22:22.067Z,5.00
2018-09-19T17:24:50.547Z,4.40
2018-09-19T17:27:19.245Z,4.10
2018-09-19T17:29:48.053Z,6.27
2018-09-19T17:32:16.806Z,7.13
2018-09-19T17:34:45.331Z,6.23
2018-09-19T17:37:14.245Z,5.23
2018-09-19T17:39:44.588Z,5.03
2018-09-19T17:42:13.519Z,4.83
2018-09-19T17:44:42.316Z,4.20
2018-09-19T17:47:10.845Z,4.67
2018-09-19T17:49:39.274Z,5.87
2018-09-19T17:52:08.901Z,6.47
2018-09-19T17:54:37.447Z,7.43
2018-09-19T17:57:06.129Z,7.17
2018-09-19T17:59:35.605Z,7.93
2018-09-19T18:02:05.057Z,6.63
2018-09-19T18:04:33.442Z,9.97
2018-09-19T18:07:02.279Z,8.53
2018-09-19T18:09:31.053Z,6.70
2018-09-19T18:11:59.683Z,7.57
2018-09-19T18:14:28.645Z,6.10
2018-09-19T18:16:57.647Z,6.93
2018-09-19T18:19:28.905Z,8.83
2018-09-19T18:21:58.038Z,6.03
2018-09-19T18:24:26.648Z,7.57
2018-09-19T18:26:55.385Z,5.37
2018-09-19T18:29:23.792Z,5.87
2018-09-19T18:31:52.332Z,6.13
2018-09-19T18:34:21.032Z,9.90
2018-09-19T18:36:49.522Z,8.57
2018-09-19T18:39:18.827Z,6.53
2018-09-19T18:41:47.937Z,6.27
2018-09-19T18:44:17.141Z,6.33
2018-09-19T18:46:45.518Z,8.10
2018-09-19T18:49:14.219Z,7.37
2018-09-19T18:51:43.788Z,7.67
2018-09-19T18:54:13.186Z,9.30
2018-09-19T18:56:41.791Z,6.60
2018-09-19T18:59:10.752Z,6.97
2018-09-19T19:01:39.282Z,6.53
2018-09-19T19:04:07.678Z,7.33
2018-09-19T19:06:36.479Z,7.17
2018-09-19T19:09:06.755Z,8.50
2018-09-19T19:11:35.120Z,8.67
2018-09-19T19:14:05.591Z,8.80
2018-09-19T19:16:34.330Z,7.43
2018-09-19T19:19:03.182Z,7.33
2018-09-19T19:21:31.780Z,7.03
2018-09-19T19:24:00.283Z,7.87
2018-09-19T19:26:28.725Z,9.40
2018-09-19T19:28:57.095Z,7.83
2018-09-19T19:31:39.293Z,7.50
2018-09-19T19:34:07.812Z,6.50
2018-09-19T19:36:36.592Z,6.20
2018-09-19T19:39:08.024Z,7.60
2018-09-19T19:41:36.693Z,7.47
2018-09-19T19:44:05.166Z,8.63
2018-09-19T19:46:34.157Z,6.67
2018-09-19T19:49:03.370Z,6.00
2018-09-19T19:51:31.856Z,6.47
2018-09-19T19:54:00.492Z,6.37
2018-09-19T19:56:28.947Z,6.03
2018-09-19T19:58:58.086Z,7.00
2018-09-19T20:01:26.927Z,6.17
2018-09-19T20:03:55.351Z,5.27
2018-09-19T20:06:23.810Z,6.53
2018-09-19T20:08:52.303Z,6.50
2018-09-19T20:11:22.351Z,5.17
2018-09-19T20:13:51.194Z,6.07
2018-09-19T20:16:20.006Z,8.90
2018-09-19T20:18:48.401Z,6.37
2018-09-19T20:21:16.830Z,6.67
2018-09-19T20:23:45.439Z,6.10
2018-09-19T20:26:14.073Z,6.27
2018-09-19T20:28:43.188Z,6.10
2018-09-19T20:31:11.612Z,5.77
2018-09-19T20:33:41.046Z,7.00
2018-09-19T20:36:09.505Z,8.70
2018-09-19T20:38:38.253Z,7.40
2018-09-19T20:41:06.691Z,7.30
2018-09-19T20:43:35.162Z,6.50
2018-09-19T20:46:03.564Z,8.03
2018-09-19T20:48:31.979Z,7.70
2018-09-19T20:51:00.928Z,7.60
2018-09-19T20:53:36.193Z,6.93
2018-09-19T20:56:05.316Z,7.80
2018-09-19T20:58:33.747Z,5.37
2018-09-19T21:01:02.183Z,5.93
2018-09-19T21:03:30.703Z,7.17
2018-09-19T21:05:59.164Z,7.80
2018-09-19T21:08:32.044Z,5.93
2018-09-19T21:11:00.468Z,5.67
2018-09-19T21:13:28.884Z,5.90
2018-09-19T21:15:58.101Z,6.53
2018-09-19T21:18:26.612Z,7.50
2018-09-19T21:20:55.269Z,6.60
2018-09-19T21:23:28.157Z,7.13
2018-09-19T21:25:56.964Z,5.10
2018-09-19T21:28:25.494Z,5.70
2018-09-19T21:30:53.842Z,7.77
2018-09-19T21:33:23.036Z,5.43
2018-09-19T21:35:51.859Z,5.20
2018-09-19T21:38:20.804Z,6.07
2018-09-19T21:40:49.261Z,4.80
2018-09-19T21:43:17.623Z,5.30
2018-09-19T21:45:46.100Z,5.47
2018-09-19T21:48:14.496Z,6.17
2018-09-19T21:50:45.622Z,4.53
2018-09-19T21:53:14.074Z,6.90
2018-09-19T21:55:42.784Z,8.13
2018-09-19T21:58:11.309Z,5.40
2018-09-19T22:00:40.211Z,5.37
2018-09-19T22:03:08.588Z,5.77
2018-09-19T22:05:37.031Z,4.80
2018-09-19T22:08:05.388Z,5.37
2018-09-19T22:10:33.863Z,5.07
2018-09-19T22:13:02.255Z,8.97
2018-09-19T22:15:30.713Z,4.47
2018-09-19T22:17:59.401Z,5.27
2018-09-19T22:20:29.592Z,4.90
2018-09-19T22:22:58.684Z,5.83
2018-09-19T22:25:27.351Z,5.23
2018-09-19T22:27:55.780Z,5.10
2018-09-19T22:30:24.463Z,4.93
2018-09-19T22:32:53.558Z,4.70
2018-09-19T22:35:24.089Z,5.17
2018-09-19T22:37:53.415Z,5.07
2018-09-19T22:40:22.572Z,4.67
2018-09-19T22:42:51.153Z,4.57
2018-09-19T22:45:20.229Z,5.43
2018-09-19T22:47:49.053Z,5.00
2018-09-19T22:50:17.501Z,5.40
2018-09-19T22:52:46.226Z,4.73
2018-09-19T22:55:15.784Z,5.33
2018-09-19T22:57:44.339Z,5.43
2018-09-19T23:00:13.860Z,7.70
2018-09-19T23:02:42.255Z,5.37
2018-09-19T23:05:10.663Z,6.97
2018-09-19T23:07:39.085Z,4.90
2018-09-19T23:10:07.524Z,5.20
2018-09-19T23:12:36.007Z,6.60
2018-09-19T23:15:04.777Z,5.80
2018-09-19T23:17:33.217Z,5.37
2018-09-19T23:20:01.899Z,4.63
2018-09-19T23:22:30.595Z,4.47
2018-09-19T23:24:59.003Z,4.93
2018-09-19T23:27:27.418Z,4.63
2018-09-19T23:29:56.767Z,5.80
2018-09-19T23:32:25.165Z,5.17
2018-09-19T23:34:53.941Z,5.60
2018-09-19T23:37:22.356Z,5.13
2018-09-19T23:39:51.057Z,4.50
2018-09-19T23:42:19.845Z,5.70
2018-09-19T23:44:48.248Z,4.70
2018-09-19T23:47:16.726Z,4.50
2018-09-19T23:49:45.175Z,5.67
2018-09-19T23:52:13.900Z,5.43
2018-09-19T23:54:42.294Z,4.40
2018-09-19T23:57:10.631Z,5.37
2018-09-19T23:59:39.055Z,4.27
